createdAt,value
2018-11-06T00:03:24.095Z,87.10
2018-11-06T00:05:53.163Z,88.30
2018-11-06T00:08:21.830Z,90.10
2018-11-06T00:10:50.976Z,90.20
2018-11-06T00:13:20.175Z,89.70
2018-11-06T00:15:49.471Z,88.80
2018-11-06T00:18:19.118Z,88.90
2018-11-06T00:20:47.711Z,89.30
2018-11-06T00:23:16.868Z,89.70
2018-11-06T00:25:45.481Z,88.10
2018-11-06T00:28:14.034Z,87.60
2018-11-06T00:30:42.650Z,89.10
2018-11-06T00:33:11.243Z,90.90
2018-11-06T00:35:39.616Z,90.00
2018-11-06T00:38:08.396Z,89.70
2018-11-06T00:40:36.832Z,90.10
2018-11-06T00:43:05.314Z,90.90
2018-11-06T00:45:34.250Z,88.30
2018-11-06T00:48:02.981Z,89.80
2018-11-06T00:50:31.828Z,90.40
2018-11-06T00:53:00.602Z,90.30
2018-11-06T00:55:28.998Z,90.30
2018-11-06T00:57:57.439Z,91.10
2018-11-06T01:00:26.128Z,88.70
2018-11-06T01:02:55.575Z,89.30
2018-11-06T01:05:24.899Z,88.90
2018-11-06T01:07:53.551Z,89.90
2018-11-06T01:10:21.959Z,90.20
2018-11-06T01:12:51.065Z,90.50
2018-11-06T01:15:19.501Z,90.20
2018-11-06T01:17:48.172Z,90.40
2018-11-06T01:20:17.765Z,90.50
2018-11-06T01:22:46.707Z,90.60
2018-11-06T01:25:15.635Z,91.00
2018-11-06T01:27:44.734Z,91.30
2018-11-06T01:30:17.307Z,92.30
2018-11-06T01:32:46.130Z,91.30
2018-11-06T01:35:15.641Z,91.60
2018-11-06T01:37:45.167Z,91.20
2018-11-06T01:40:15.823Z,90.40
2018-11-06T01:42:45.076Z,90.40
2018-11-06T01:45:14.812Z,90.80
2018-11-06T01:47:43.147Z,90.10
2018-11-06T01:50:16.108Z,90.80
2018-11-06T01:52:47.865Z,91.10
2018-11-06T01:55:18.586Z,90.50
2018-11-06T01:57:53.057Z,91.00
2018-11-06T02:00:24.129Z,91.30
2018-11-06T02:02:54.560Z,88.00
2018-11-06T02:05:26.472Z,88.00
2018-11-06T02:07:55.313Z,89.30
2018-11-06T02:10:23.759Z,89.00
2018-11-06T02:12:52.239Z,90.00
2018-11-06T02:15:21.023Z,90.60
2018-11-06T02:17:49.797Z,89.60
2018-11-06T02:20:18.295Z,90.50
2018-11-06T02:22:47.807Z,90.20
2018-11-06T02:25:16.303Z,90.40
2018-11-06T02:27:45.323Z,90.10
2018-11-06T02:30:15.804Z,89.60
2018-11-06T02:32:45.280Z,90.10
2018-11-06T02:35:14.455Z,87.50
2018-11-06T02:37:43.549Z,88.80
2018-11-06T02:40:14.147Z,87.10
2018-11-06T02:42:43.486Z,88.50
2018-11-06T02:45:12.836Z,85.50
2018-11-06T02:47:41.815Z,88.20
2018-11-06T02:50:11.737Z,85.60
2018-11-06T02:52:40.581Z,86.10
2018-11-06T02:55:09.415Z,87.30
2018-11-06T02:57:37.903Z,87.70
2018-11-06T03:00:09.615Z,89.30
2018-11-06T03:02:38.114Z,88.40
2018-11-06T03:05:07.688Z,87.20
2018-11-06T03:07:37.204Z,88.00
2018-11-06T03:10:06.787Z,89.70
2018-11-06T03:12:35.320Z,88.20
2018-11-06T03:15:04.527Z,87.30
2018-11-06T03:17:32.972Z,85.50
2018-11-06T03:20:02.588Z,86.60
2018-11-06T03:22:33.838Z,85.40
2018-11-06T03:25:02.534Z,85.00
2018-11-06T03:27:31.056Z,86.00
2018-11-06T03:30:08.499Z,86.50
2018-11-06T03:32:37.196Z,87.90
2018-11-06T03:35:07.465Z,89.70
2018-11-06T03:37:36.390Z,90.80
2018-11-06T03:40:05.667Z,92.20
2018-11-06T03:42:34.599Z,91.70
2018-11-06T03:45:04.163Z,91.40
2018-11-06T03:47:32.541Z,91.70
2018-11-06T03:50:01.640Z,93.00
2018-11-06T03:52:30.492Z,91.30
2018-11-06T03:54:59.007Z,91.50
2018-11-06T03:57:27.752Z,87.90
2018-11-06T03:59:56.189Z,88.30
2018-11-06T04:02:25.255Z,88.30
2018-11-06T04:04:54.545Z,89.30
2018-11-06T04:07:22.979Z,89.40
2018-11-06T04:09:51.620Z,90.00
2018-11-06T04:12:20.093Z,89.70
2018-11-06T04:14:48.578Z,89.50
2018-11-06T04:17:19.619Z,91.10
2018-11-06T04:19:48.172Z,91.20
2018-11-06T04:22:17.423Z,90.20
2018-11-06T04:24:45.798Z,89.40
2018-11-06T04:27:14.284Z,90.30
2018-11-06T04:29:42.716Z,91.00
2018-11-06T04:32:11.155Z,91.20
2018-11-06T04:34:39.561Z,91.00
2018-11-06T04:37:07.935Z,90.50
2018-11-06T04:39:36.811Z,90.80
2018-11-06T04:42:05.556Z,89.30
2018-11-06T04:44:33.973Z,87.80
2018-11-06T04:47:03.508Z,89.40
2018-11-06T04:49:33.103Z,90.30
2018-11-06T04:52:01.474Z,91.00
2018-11-06T04:54:30.877Z,91.60
2018-11-06T04:56:59.486Z,91.00
2018-11-06T04:59:27.939Z,90.70
2018-11-06T05:01:56.449Z,90.80
2018-11-06T05:04:24.848Z,89.10
2018-11-06T05:06:53.230Z,88.70
2018-11-06T05:09:22.885Z,89.30
2018-11-06T05:11:51.284Z,89.60
2018-11-06T05:14:20.014Z,90.30
2018-11-06T05:16:48.686Z,90.90
2018-11-06T05:19:17.061Z,91.00
2018-11-06T05:21:45.939Z,90.80
2018-11-06T05:24:14.903Z,91.30
2018-11-06T05:26:44.303Z,91.50
2018-11-06T05:29:13.295Z,91.80
2018-11-06T05:31:41.671Z,92.10
2018-11-06T05:34:10.050Z,92.00
2018-11-06T05:36:38.511Z,92.20
2018-11-06T05:41:38.724Z,92.30
2018-11-06T05:44:07.185Z,92.10
2018-11-06T05:46:35.633Z,91.90
2018-11-06T05:54:12.327Z,89.70
2018-11-06T05:56:40.708Z,88.80
2018-11-06T06:01:37.990Z,87.60
2018-11-06T06:04:07.298Z,88.10
2018-11-06T06:06:35.724Z,85.40
2018-11-06T06:09:06.627Z,85.50
2018-11-06T06:11:35.067Z,86.50
2018-11-06T06:14:03.465Z,87.10
2018-11-06T06:16:31.895Z,87.30
2018-11-06T06:19:00.344Z,88.80
2018-11-06T06:21:29.674Z,88.50
2018-11-06T06:23:58.440Z,88.60
2018-11-06T06:26:27.382Z,91.30
2018-11-06T06:28:57.642Z,89.40
2018-11-06T06:31:28.989Z,89.80
2018-11-06T06:34:01.313Z,90.20
2018-11-06T06:36:32.542Z,90.50
2018-11-06T06:39:03.890Z,90.90
2018-11-06T06:41:34.511Z,91.80
2018-11-06T06:44:05.459Z,92.30
2018-11-06T06:46:36.087Z,91.40
2018-11-06T06:51:37.345Z,87.50
2018-11-06T06:56:39.916Z,87.40
2018-11-06T06:59:09.617Z,88.90
2018-11-06T07:01:40.509Z,90.40
2018-11-06T07:04:11.022Z,89.40
2018-11-06T07:06:41.416Z,88.20
2018-11-06T07:09:12.157Z,85.50
2018-11-06T07:11:42.568Z,86.10
2018-11-06T07:14:13.992Z,89.80
2018-11-06T07:16:44.674Z,87.40
2018-11-06T07:19:15.076Z,86.60
2018-11-06T07:21:46.357Z,85.90
2018-11-06T07:24:16.921Z,84.80
2018-11-06T07:26:47.325Z,83.30
2018-11-06T07:29:17.809Z,84.10
2018-11-06T07:31:48.218Z,83.60
2018-11-06T07:34:19.372Z,81.00
2018-11-06T07:36:49.540Z,82.60
2018-11-06T07:39:20.320Z,83.30
2018-11-06T07:41:50.788Z,81.60
2018-11-06T07:44:22.121Z,83.10
2018-11-06T07:46:52.209Z,82.80
2018-11-06T07:49:22.524Z,81.80
2018-11-06T07:51:52.413Z,80.90
2018-11-06T07:54:22.750Z,81.50
2018-11-06T07:56:52.725Z,81.80
2018-11-06T07:59:23.387Z,80.70
2018-11-06T08:01:54.822Z,80.00
2018-11-06T08:04:25.687Z,78.00
2018-11-06T08:06:56.795Z,78.20
2018-11-06T08:09:27.527Z,78.10
2018-11-06T08:12:12.793Z,78.70
2018-11-06T08:14:43.498Z,76.20
2018-11-06T08:17:14.302Z,75.40
2018-11-06T08:19:44.777Z,76.00
2018-11-06T08:22:15.271Z,77.30
2018-11-06T08:24:46.089Z,74.10
2018-11-06T08:27:16.858Z,74.70
2018-11-06T08:29:47.754Z,73.80
2018-11-06T08:32:19.095Z,74.30
2018-11-06T08:34:49.668Z,72.80
2018-11-06T08:37:20.009Z,73.40
2018-11-06T08:39:50.729Z,73.30
2018-11-06T08:42:20.664Z,73.70
2018-11-06T08:44:51.940Z,70.80
2018-11-06T08:47:22.537Z,72.90
2018-11-06T08:49:52.778Z,71.70
2018-11-06T08:52:25.691Z,71.10
2018-11-06T08:54:56.855Z,71.10
2018-11-06T08:57:27.494Z,68.60
2018-11-06T08:59:58.385Z,69.00
2018-11-06T09:02:28.193Z,68.60
2018-11-06T09:04:59.176Z,69.60
2018-11-06T09:07:29.866Z,68.30
2018-11-06T09:10:00.416Z,68.40
2018-11-06T09:12:32.076Z,68.80
2018-11-06T09:15:02.502Z,68.00
2018-11-06T09:17:34.148Z,68.30
2018-11-06T09:20:04.772Z,68.60
2018-11-06T09:22:35.729Z,69.20
2018-11-06T09:25:08.864Z,69.10
2018-11-06T09:27:39.702Z,67.40
2018-11-06T09:30:13.241Z,66.50
2018-11-06T09:32:46.292Z,66.00
2018-11-06T09:35:19.000Z,66.10
2018-11-06T09:37:50.111Z,64.80
2018-11-06T09:40:21.490Z,65.90
2018-11-06T09:42:53.041Z,67.60
2018-11-06T09:45:23.338Z,64.10
2018-11-06T09:47:54.220Z,64.80
2018-11-06T09:50:33.939Z,65.40
2018-11-06T09:53:05.714Z,64.60
2018-11-06T09:55:40.633Z,64.00
2018-11-06T09:58:12.418Z,64.70
2018-11-06T10:00:44.147Z,64.10
2018-11-06T10:03:15.868Z,64.50
2018-11-06T10:05:47.435Z,65.10
2018-11-06T10:08:19.451Z,64.20
2018-11-06T10:10:50.166Z,63.70
2018-11-06T10:13:20.195Z,63.00
2018-11-06T10:15:50.805Z,62.50
2018-11-06T10:18:21.970Z,63.40
2018-11-06T10:20:52.599Z,62.80
2018-11-06T10:23:23.895Z,62.40
2018-11-06T10:25:55.024Z,62.20
2018-11-06T10:28:26.909Z,62.20
2018-11-06T10:30:58.948Z,61.90
2018-11-06T10:33:30.051Z,60.20
2018-11-06T10:36:01.008Z,60.60
2018-11-06T10:38:31.246Z,61.30
2018-11-06T10:41:01.484Z,60.70
2018-11-06T10:43:31.808Z,60.00
2018-11-06T10:46:02.174Z,61.50
2018-11-06T10:48:36.640Z,61.10
2018-11-06T10:51:07.596Z,60.30
2018-11-06T10:53:37.772Z,59.40
2018-11-06T10:56:08.167Z,59.30
2018-11-06T10:58:38.450Z,56.90
2018-11-06T11:01:13.972Z,57.40
2018-11-06T11:03:49.545Z,58.60
2018-11-06T11:06:20.041Z,59.50
2018-11-06T11:08:50.959Z,58.40
2018-11-06T11:11:21.367Z,57.50
2018-11-06T11:13:51.314Z,58.00
2018-11-06T11:16:22.022Z,57.70
2018-11-06T11:18:52.031Z,57.10
2018-11-06T11:21:22.008Z,56.50
2018-11-06T11:23:52.544Z,57.10
2018-11-06T11:26:22.991Z,57.60
2018-11-06T11:28:54.433Z,57.40
2018-11-06T11:31:25.159Z,57.80
2018-11-06T11:33:56.474Z,58.00
2018-11-06T11:36:26.631Z,58.00
2018-11-06T11:38:56.980Z,56.00
2018-11-06T11:41:28.034Z,57.00
2018-11-06T11:43:59.745Z,53.50
2018-11-06T11:46:30.103Z,54.20
2018-11-06T11:49:02.985Z,54.40
2018-11-06T11:51:33.555Z,53.20
2018-11-06T11:54:06.446Z,53.20
2018-11-06T11:56:37.850Z,51.00
2018-11-06T11:59:09.657Z,52.40
2018-11-06T12:04:11.648Z,51.60
2018-11-06T12:06:42.582Z,51.40
2018-11-06T12:09:14.568Z,51.90
2018-11-06T12:11:46.035Z,51.30
2018-11-06T12:14:17.977Z,51.50
2018-11-06T12:16:48.610Z,51.30
2018-11-06T12:19:19.845Z,51.60
2018-11-06T12:21:51.545Z,52.20
2018-11-06T12:24:23.371Z,53.50
2018-11-06T12:26:55.420Z,51.80
2018-11-06T12:29:27.569Z,50.80
2018-11-06T12:31:58.545Z,51.50
2018-11-06T12:34:29.438Z,51.30
2018-11-06T12:37:00.168Z,51.40
2018-11-06T12:39:32.084Z,51.30
2018-11-06T12:42:03.214Z,52.00
2018-11-06T12:44:34.211Z,51.20
2018-11-06T12:47:04.325Z,51.60
2018-11-06T12:49:34.176Z,51.80
2018-11-06T12:52:04.386Z,51.40
2018-11-06T12:54:34.197Z,52.10
2018-11-06T12:57:03.069Z,51.40
2018-11-06T12:59:31.442Z,49.60
2018-11-06T13:02:05.230Z,50.10
2018-11-06T13:04:51.306Z,50.00
2018-11-06T13:07:40.881Z,49.30
2018-11-06T13:10:15.186Z,49.80
2018-11-06T13:12:47.039Z,50.30
2018-11-06T13:15:19.888Z,49.40
2018-11-06T13:17:50.476Z,49.50
2018-11-06T13:20:22.118Z,50.30
2018-11-06T13:22:53.353Z,48.30
2018-11-06T13:25:25.571Z,47.70
2018-11-06T13:27:56.937Z,48.30
2018-11-06T13:30:28.507Z,49.60
2018-11-06T13:32:59.871Z,49.80
2018-11-06T13:35:30.978Z,50.40
2018-11-06T13:38:02.723Z,50.80
2018-11-06T13:43:47.392Z,50.20
2018-11-06T13:49:24.126Z,50.10
2018-11-06T13:52:13.438Z,51.10
2018-11-06T13:54:56.635Z,51.30
2018-11-06T13:57:32.286Z,50.30
2018-11-06T14:00:05.302Z,51.70
2018-11-06T14:02:36.791Z,50.80
2018-11-06T14:05:08.968Z,51.10
2018-11-06T14:07:41.176Z,49.70
2018-11-06T14:10:12.730Z,50.20
2018-11-06T14:12:45.929Z,49.80
2018-11-06T14:15:18.411Z,50.40
2018-11-06T14:17:52.297Z,49.50
2018-11-06T14:20:24.416Z,50.00
2018-11-06T14:22:56.675Z,50.10
2018-11-06T14:25:29.335Z,49.90
2018-11-06T14:28:01.282Z,49.90
2018-11-06T14:30:34.066Z,49.70
2018-11-06T14:33:06.160Z,50.70
2018-11-06T14:35:38.372Z,51.40
2018-11-06T14:38:10.393Z,52.20
2018-11-06T14:40:42.591Z,52.30
2018-11-06T14:43:15.079Z,52.00
2018-11-06T14:45:48.035Z,52.20
2018-11-06T14:48:21.056Z,52.80
2018-11-06T14:50:53.686Z,53.60
2018-11-06T14:53:24.198Z,55.20
2018-11-06T14:55:54.433Z,53.90
2018-11-06T14:58:25.641Z,54.70
2018-11-06T15:00:57.627Z,55.50
2018-11-06T15:03:29.297Z,55.90
2018-11-06T15:06:00.800Z,56.50
2018-11-06T15:08:32.790Z,57.00
2018-11-06T15:11:03.860Z,57.90
2018-11-06T15:13:38.205Z,59.00
2018-11-06T15:16:10.225Z,58.70
2018-11-06T15:18:44.487Z,59.40
2018-11-06T15:21:20.346Z,60.00
2018-11-06T15:23:52.520Z,61.20
2018-11-06T15:28:54.864Z,60.40
2018-11-06T15:31:25.913Z,62.80
2018-11-06T15:33:57.348Z,63.40
2018-11-06T15:38:57.944Z,62.00
2018-11-06T15:41:28.621Z,62.50
2018-11-06T15:44:01.996Z,63.50
2018-11-06T15:46:33.827Z,63.30
2018-11-06T15:49:05.406Z,63.80
2018-11-06T15:51:37.507Z,63.30
2018-11-06T15:54:09.052Z,64.80
2018-11-06T15:59:12.450Z,63.90
2018-11-06T16:04:15.685Z,64.10
2018-11-06T16:06:47.134Z,66.10
2018-11-06T16:09:19.370Z,65.80
2018-11-06T16:11:51.269Z,66.80
2018-11-06T16:14:23.340Z,67.80
2018-11-06T16:16:53.057Z,67.90
2018-11-06T16:19:24.099Z,68.60
2018-11-06T16:21:54.507Z,68.80
2018-11-06T16:24:25.746Z,68.80
2018-11-06T16:26:55.751Z,68.00
2018-11-06T16:29:25.098Z,68.50
2018-11-06T16:31:56.539Z,68.30
2018-11-06T16:34:28.127Z,68.30
2018-11-06T16:36:56.695Z,69.70
2018-11-06T16:39:26.768Z,70.30
2018-11-06T16:41:55.837Z,69.70
2018-11-06T16:44:28.133Z,67.30
2018-11-06T16:46:59.239Z,67.10
2018-11-06T16:49:27.832Z,67.10
2018-11-06T16:51:57.819Z,67.70
2018-11-06T16:54:27.900Z,66.90
2018-11-06T16:56:57.580Z,66.60
2018-11-06T16:59:26.899Z,66.00
2018-11-06T17:01:57.582Z,66.40
2018-11-06T17:04:28.706Z,65.90
2018-11-06T17:06:59.188Z,65.40
2018-11-06T17:09:27.866Z,65.90
2018-11-06T17:11:57.113Z,66.30
2018-11-06T17:14:27.968Z,67.00
2018-11-06T17:16:57.183Z,66.80
2018-11-06T17:19:26.100Z,67.40
2018-11-06T17:21:54.962Z,67.40
2018-11-06T17:24:24.285Z,67.30
2018-11-06T17:26:53.071Z,67.80
2018-11-06T17:29:23.034Z,68.00
2018-11-06T17:31:51.839Z,67.20
2018-11-06T17:34:20.791Z,68.10
2018-11-06T17:36:49.328Z,68.60
2018-11-06T17:39:18.613Z,68.60
2018-11-06T17:41:47.433Z,69.10
2018-11-06T17:44:16.872Z,69.60
2018-11-06T17:46:45.667Z,70.00
2018-11-06T17:49:14.396Z,70.00
2018-11-06T17:51:43.478Z,70.60
2018-11-06T17:54:12.273Z,71.30
2018-11-06T17:56:40.885Z,70.90
2018-11-06T17:59:09.517Z,70.90
2018-11-06T18:01:38.035Z,71.20
2018-11-06T18:04:06.865Z,71.70
2018-11-06T18:06:35.317Z,72.00
2018-11-06T18:09:06.503Z,72.50
2018-11-06T18:11:36.248Z,73.70
2018-11-06T18:14:05.744Z,72.50
2018-11-06T18:16:35.271Z,72.60
2018-11-06T18:19:03.788Z,73.50
2018-11-06T18:21:32.922Z,73.20
2018-11-06T18:24:02.025Z,74.00
2018-11-06T18:26:32.339Z,74.30
2018-11-06T18:29:01.068Z,74.40
2018-11-06T18:31:29.682Z,73.80
2018-11-06T18:33:58.115Z,74.70
2018-11-06T18:36:27.473Z,74.90
2018-11-06T18:38:55.968Z,75.40
2018-11-06T18:41:24.801Z,75.30
2018-11-06T18:43:53.727Z,75.50
2018-11-06T18:46:22.165Z,75.90
2018-11-06T18:48:50.889Z,75.90
2018-11-06T18:51:19.597Z,75.60
2018-11-06T18:53:48.734Z,76.30
2018-11-06T18:56:17.238Z,76.90
2018-11-06T18:58:45.623Z,76.40
2018-11-06T19:01:15.134Z,76.30
2018-11-06T19:03:43.860Z,76.20
2018-11-06T19:06:12.582Z,76.30
2018-11-06T19:08:41.938Z,75.90
2018-11-06T19:11:11.084Z,76.50
2018-11-06T19:13:40.312Z,76.10
2018-11-06T19:16:09.027Z,75.30
2018-11-06T19:18:38.649Z,75.80
2018-11-06T19:21:07.657Z,75.80
2018-11-06T19:23:36.177Z,75.70
2018-11-06T19:26:05.128Z,75.30
2018-11-06T19:28:33.611Z,75.10
2018-11-06T19:31:02.080Z,75.80
2018-11-06T19:33:30.714Z,75.90
2018-11-06T19:35:59.272Z,76.30
2018-11-06T19:38:28.784Z,77.10
2018-11-06T19:40:57.336Z,76.00
2018-11-06T19:43:32.720Z,76.70
2018-11-06T19:46:01.653Z,76.30
2018-11-06T19:48:31.682Z,76.60
2018-11-06T19:51:00.213Z,76.40
2018-11-06T19:53:30.759Z,77.00
2018-11-06T19:55:59.441Z,77.30
2018-11-06T19:58:28.340Z,78.20
2018-11-06T20:00:57.355Z,77.70
2018-11-06T20:03:28.437Z,77.40
2018-11-06T20:05:57.412Z,77.50
2018-11-06T20:08:26.746Z,77.50
2018-11-06T20:10:56.297Z,78.00
2018-11-06T20:13:24.865Z,78.30
2018-11-06T20:15:54.628Z,78.90
2018-11-06T20:18:23.049Z,79.60
2018-11-06T20:20:52.555Z,80.10
2018-11-06T20:23:21.487Z,79.90
2018-11-06T20:25:50.405Z,79.10
2018-11-06T20:28:22.725Z,80.30
2018-11-06T20:30:51.310Z,79.90
2018-11-06T20:33:20.225Z,78.90
2018-11-06T20:35:49.846Z,79.30
2018-11-06T20:38:18.404Z,79.80
2018-11-06T20:43:15.301Z,79.70
2018-11-06T20:45:43.726Z,80.40
2018-11-06T20:48:12.238Z,81.10
2018-11-06T20:50:40.770Z,80.40
2018-11-06T20:53:10.235Z,79.90
2018-11-06T20:55:38.943Z,80.30
2018-11-06T20:58:07.357Z,80.90
2018-11-06T21:00:35.904Z,82.00
2018-11-06T21:03:04.590Z,82.70
2018-11-06T21:05:33.085Z,83.50
2018-11-06T21:08:01.571Z,83.50
2018-11-06T21:10:31.051Z,83.00
2018-11-06T21:12:59.738Z,80.70
2018-11-06T21:15:28.654Z,81.20
2018-11-06T21:17:57.568Z,81.30
2018-11-06T21:20:26.093Z,82.00
2018-11-06T21:22:54.557Z,82.70
2018-11-06T21:25:23.189Z,83.40
2018-11-06T21:27:51.666Z,84.40
2018-11-06T21:30:20.901Z,84.10
2018-11-06T21:32:50.876Z,85.10
2018-11-06T21:35:19.405Z,85.20
2018-11-06T21:37:48.429Z,85.60
2018-11-06T21:40:18.359Z,82.80
2018-11-06T21:42:47.454Z,82.00
2018-11-06T21:45:16.603Z,82.10
2018-11-06T21:47:45.916Z,81.20
2018-11-06T21:50:15.321Z,81.50
2018-11-06T21:52:43.769Z,82.30
2018-11-06T21:55:13.856Z,81.60
2018-11-06T21:57:42.665Z,83.30
2018-11-06T22:00:15.556Z,83.00
2018-11-06T22:02:44.420Z,83.10
2018-11-06T22:05:14.456Z,83.20
2018-11-06T22:07:43.693Z,84.20
2018-11-06T22:10:13.396Z,84.80
2018-11-06T22:12:43.123Z,85.80
2018-11-06T22:15:12.663Z,86.50
2018-11-06T22:17:41.750Z,87.10
2018-11-06T22:20:16.645Z,87.70
2018-11-06T22:22:45.648Z,88.30
2018-11-06T22:25:14.259Z,87.20
2018-11-06T22:27:43.623Z,85.70
2018-11-06T22:30:13.517Z,86.30
2018-11-06T22:32:42.920Z,86.60
2018-11-06T22:35:12.871Z,87.30
2018-11-06T22:37:41.891Z,87.50
2018-11-06T22:40:12.151Z,88.00
2018-11-06T22:42:41.036Z,88.60
2018-11-06T22:45:12.658Z,88.60
2018-11-06T22:47:42.073Z,87.00
2018-11-06T22:50:12.142Z,87.90
2018-11-06T22:52:40.859Z,87.10
2018-11-06T22:55:09.656Z,87.80
2018-11-06T22:57:38.378Z,87.20
2018-11-06T23:00:14.468Z,87.70
2018-11-06T23:02:43.454Z,87.40
2018-11-06T23:05:12.367Z,87.50
2018-11-06T23:07:46.495Z,87.40
2018-11-06T23:10:14.931Z,87.90
2018-11-06T23:12:44.563Z,88.50
2018-11-06T23:15:13.269Z,86.80
2018-11-06T23:17:43.392Z,87.10
2018-11-06T23:20:12.076Z,86.80
2018-11-06T23:22:40.721Z,87.30
2018-11-06T23:25:09.639Z,86.30
2018-11-06T23:27:39.077Z,86.90
2018-11-06T23:30:11.081Z,87.10
2018-11-06T23:32:41.091Z,86.90
2018-11-06T23:37:40.011Z,87.60
2018-11-06T23:40:09.441Z,87.40
2018-11-06T23:42:38.348Z,87.90
2018-11-06T23:45:07.647Z,87.80
2018-11-06T23:47:36.471Z,88.40
2018-11-06T23:50:06.417Z,88.80
2018-11-06T23:52:34.826Z,89.20
2018-11-06T23:55:03.309Z,90.10
2018-11-06T23:57:31.663Z,89.90
